Aullville, Missouri
Current Conditions -  °F | °C
As of 6:55 AM on Saturday 20 Dec 2014 (Local Time) from KRCM Reporting Station
Overcast Overcast  
Wind Chill: -2°   Ceiling: 1200
Heat Index:   Visibility: 10mi
Dew Point:   Wind: 6mph
Humidity: 100%   Direction: 210°SSW
Pressure: 30.22"   Gusts: NA
Location:  39.0541°N, 93.6618°W
Report Text: KRCM 201255Z AUTO 21005KT 10SM OVC012 01/01 A3022 RMK AO2
Loading
Personal Weather Stations






























Interactive Weather Map New forecast layout! Learn more

10-Day Weather Forecast

Advertisements
Track Severe Weather on mobile